createdAt,value
2022-07-26T00:02:23.889Z,44.83
2022-07-26T00:12:25.724Z,44.46
2022-07-26T00:22:36.413Z,45.21
2022-07-26T00:32:39.094Z,46.05
2022-07-26T00:42:41.080Z,46.04
2022-07-26T00:52:47.181Z,45.92
2022-07-26T01:02:49.601Z,46.54
2022-07-26T01:12:51.471Z,46.72
2022-07-26T01:22:53.186Z,46.46
2022-07-26T01:32:54.848Z,46.85
2022-07-26T01:42:59.815Z,46.65
2022-07-26T01:53:01.501Z,47.07
2022-07-26T02:03:09.851Z,47.45
2022-07-26T02:13:15.580Z,47.77
2022-07-26T02:23:24.276Z,48.92
2022-07-26T02:33:27.251Z,49.72
2022-07-26T02:43:30.756Z,49.37
2022-07-26T02:53:33.103Z,51.27
2022-07-26T03:03:36.520Z,51.26
2022-07-26T03:13:38.561Z,53.38
2022-07-26T03:23:40.425Z,53.90
2022-07-26T03:33:42.332Z,54.36
2022-07-26T03:43:43.984Z,53.68
2022-07-26T03:53:45.805Z,53.77
2022-07-26T04:03:48.003Z,54.94
2022-07-26T04:13:49.857Z,55.00
2022-07-26T04:23:51.986Z,53.57
2022-07-26T04:33:53.804Z,51.35
2022-07-26T04:43:56.339Z,50.33
2022-07-26T04:54:03.245Z,47.65
2022-07-26T05:04:05.111Z,48.37
2022-07-26T05:14:09.272Z,47.24
2022-07-26T05:24:12.609Z,45.74
2022-07-26T05:34:14.745Z,45.95
2022-07-26T05:44:16.350Z,43.81
2022-07-26T05:54:22.852Z,43.85
2022-07-26T06:04:30.574Z,42.08
2022-07-26T06:14:32.389Z,41.76
2022-07-26T06:24:34.126Z,45.30
2022-07-26T06:34:49.872Z,46.29
2022-07-26T06:44:53.053Z,48.46
2022-07-26T06:54:56.120Z,48.49
2022-07-26T07:04:57.933Z,47.95
2022-07-26T07:15:06.200Z,48.90
2022-07-26T07:25:10.000Z,45.21
2022-07-26T07:35:13.249Z,43.30
2022-07-26T07:45:19.876Z,41.00
2022-07-26T07:55:46.063Z,41.44
2022-07-26T08:05:49.439Z,41.81
2022-07-26T08:15:53.823Z,41.72
2022-07-26T08:26:03.201Z,44.76
2022-07-26T08:36:09.185Z,46.50
2022-07-26T08:46:16.392Z,47.40
2022-07-26T08:56:18.135Z,44.85
2022-07-26T09:06:26.327Z,42.47
2022-07-26T09:16:30.967Z,38.28
2022-07-26T09:26:33.347Z,39.02
2022-07-26T09:36:52.591Z,40.85
2022-07-26T09:47:14.777Z,43.96
2022-07-26T09:57:22.476Z,50.62
2022-07-26T10:07:24.696Z,63.31
2022-07-26T10:17:31.810Z,93.01
2022-07-26T10:27:40.957Z,100.00
2022-07-26T10:37:59.714Z,100.00
2022-07-26T10:48:29.431Z,100.00
2022-07-26T10:58:43.278Z,100.00
2022-07-26T11:08:48.468Z,100.00
2022-07-26T11:18:50.435Z,100.00
2022-07-26T11:29:06.809Z,100.00
2022-07-26T11:39:15.212Z,100.00
2022-07-26T11:49:25.097Z,100.00
2022-07-26T11:59:36.855Z,100.00
2022-07-26T12:09:46.791Z,100.00
2022-07-26T12:19:48.659Z,98.16
2022-07-26T12:29:55.684Z,91.36
2022-07-26T12:40:18.125Z,89.93
2022-07-26T12:50:23.635Z,86.99
2022-07-26T13:00:25.792Z,88.59
2022-07-26T13:10:36.360Z,93.02
2022-07-26T13:20:38.699Z,83.66
2022-07-26T13:30:47.592Z,51.42
2022-07-26T13:40:50.575Z,73.83
2022-07-26T13:50:55.545Z,81.77
2022-07-26T14:01:02.638Z,80.50
2022-07-26T14:11:05.234Z,73.09
2022-07-26T14:21:10.493Z,66.35
2022-07-26T14:31:12.726Z,55.83
2022-07-26T14:41:16.227Z,65.82
2022-07-26T14:51:22.509Z,72.44
2022-07-26T15:01:24.332Z,77.63
2022-07-26T15:11:26.171Z,76.17
2022-07-26T15:21:28.755Z,78.37
2022-07-26T15:31:36.999Z,77.03
2022-07-26T15:41:39.386Z,70.65
2022-07-26T15:51:43.716Z,72.26
2022-07-26T16:01:47.252Z,74.25
2022-07-26T16:11:50.247Z,77.86
2022-07-26T16:21:52.244Z,74.23
2022-07-26T16:31:56.437Z,74.57
2022-07-26T16:42:07.133Z,74.78
2022-07-26T16:52:11.300Z,63.95
2022-07-26T17:02:13.232Z,59.74
2022-07-26T17:12:16.695Z,63.86
2022-07-26T17:22:18.709Z,63.66
2022-07-26T17:32:20.533Z,66.85
2022-07-26T17:42:22.982Z,73.12
2022-07-26T17:52:24.576Z,76.27
2022-07-26T18:02:34.720Z,78.33
2022-07-26T18:12:36.444Z,80.41
2022-07-26T18:22:39.466Z,83.39
2022-07-26T18:32:41.142Z,85.76
2022-07-26T18:42:51.709Z,89.27
2022-07-26T18:52:53.319Z,92.89
2022-07-26T19:02:57.944Z,95.33
2022-07-26T19:12:59.786Z,97.84
2022-07-26T19:23:01.593Z,99.42
2022-07-26T19:33:04.189Z,100.00
2022-07-26T19:43:09.128Z,100.00
2022-07-26T19:53:16.312Z,100.00
2022-07-26T20:03:19.005Z,100.00
2022-07-26T20:13:20.859Z,100.00
2022-07-26T20:23:25.710Z,100.00
2022-07-26T20:33:38.063Z,100.00
2022-07-26T20:43:39.873Z,100.00
2022-07-26T20:53:42.287Z,100.00
2022-07-26T21:03:44.549Z,100.00
2022-07-26T21:13:54.040Z,100.00
2022-07-26T21:24:04.458Z,100.00
2022-07-26T21:34:06.177Z,100.00
2022-07-26T21:44:09.484Z,100.00
2022-07-26T21:54:12.348Z,100.00
2022-07-26T22:04:14.019Z,100.00
2022-07-26T22:14:17.438Z,100.00
2022-07-26T22:24:19.252Z,100.00
2022-07-26T22:34:21.105Z,100.00
2022-07-26T22:44:25.089Z,100.00
2022-07-26T22:54:26.834Z,100.00
2022-07-26T23:04:28.532Z,100.00
2022-07-26T23:14:30.475Z,100.00
2022-07-26T23:24:32.307Z,100.00
2022-07-26T23:34:34.988Z,98.17
2022-07-26T23:44:36.808Z,95.82
2022-07-26T23:54:41.928Z,92.71
